createdAt,value
2022-11-29T16:53:42.825Z,5.69
2022-11-29T16:56:17.066Z,5.81
2022-11-29T16:59:24.754Z,5.94
2022-11-29T17:01:39.812Z,6.06
2022-11-29T17:04:09.965Z,6.16
2022-11-29T17:06:39.007Z,6.24
2022-11-29T17:09:07.390Z,6.30
2022-11-29T17:11:35.800Z,6.34
2022-11-29T17:14:03.957Z,6.38
2022-11-29T17:16:32.651Z,6.40
2022-11-29T17:19:01.417Z,6.34
2022-11-29T17:21:33.056Z,6.35
2022-11-29T17:24:01.873Z,6.37
2022-11-29T17:26:30.396Z,6.37
2022-11-29T17:28:58.696Z,6.40
2022-11-29T17:31:27.684Z,6.41
2022-11-29T17:33:56.378Z,6.42
2022-11-29T17:36:24.812Z,6.42
2022-11-29T17:38:52.880Z,6.40
2022-11-29T17:41:23.729Z,6.40
2022-11-29T17:43:54.127Z,6.40
2022-11-29T17:46:23.952Z,6.38
2022-11-29T17:48:52.911Z,6.38
2022-11-29T17:51:50.532Z,6.39
2022-11-29T17:54:12.863Z,6.39
2022-11-29T17:56:42.137Z,6.39
2022-11-29T17:59:10.717Z,6.36
2022-11-29T18:01:39.116Z,6.34
2022-11-29T18:04:08.700Z,6.32
2022-11-29T18:06:40.786Z,6.32
2022-11-29T18:09:11.030Z,6.31
2022-11-29T18:11:48.293Z,6.31
2022-11-29T18:14:21.299Z,6.29
2022-11-29T18:16:49.942Z,6.25
2022-11-29T18:19:21.292Z,6.25
2022-11-29T18:21:50.624Z,6.23
2022-11-29T18:24:22.656Z,6.22
2022-11-29T18:26:50.906Z,6.20
2022-11-29T18:29:19.190Z,6.19
2022-11-29T18:31:47.345Z,6.21
2022-11-29T18:34:15.924Z,6.20
2022-11-29T18:36:49.347Z,6.20
2022-11-29T18:39:20.592Z,6.21
2022-11-29T18:41:50.466Z,6.20
2022-11-29T18:44:22.305Z,6.21
2022-11-29T18:46:50.853Z,6.21
2022-11-29T18:49:19.082Z,6.21
2022-11-29T18:51:48.763Z,6.21
2022-11-29T18:54:19.259Z,6.22
2022-11-29T18:56:50.276Z,6.23
2022-11-29T18:59:18.597Z,6.21
2022-11-29T19:01:48.737Z,6.21
2022-11-29T19:04:22.393Z,6.18
2022-11-29T19:06:50.722Z,6.16
2022-11-29T19:09:24.725Z,6.12
2022-11-29T19:11:53.392Z,6.09
2022-11-29T19:14:22.116Z,6.05
2022-11-29T19:16:50.796Z,6.01
2022-11-29T19:19:22.302Z,6.00
2022-11-29T19:21:50.866Z,5.97
2022-11-29T19:24:19.790Z,5.94
2022-11-29T19:26:50.439Z,5.92
2022-11-29T19:29:19.267Z,5.91
2022-11-29T19:31:47.881Z,5.89
2022-11-29T19:34:16.135Z,5.86
2022-11-29T19:36:45.385Z,5.83
2022-11-29T19:39:16.822Z,5.81
2022-11-29T19:41:47.592Z,5.77
2022-11-29T19:44:15.815Z,5.74
2022-11-29T19:46:46.488Z,5.70
2022-11-29T19:49:15.697Z,5.67
2022-11-29T19:51:45.007Z,5.65
2022-11-29T19:54:13.855Z,5.64
2022-11-29T19:56:41.970Z,5.62
2022-11-29T19:59:10.316Z,5.60
2022-11-29T20:01:41.527Z,5.57
2022-11-29T20:04:12.493Z,5.57
2022-11-29T20:06:41.487Z,5.56
2022-11-29T20:09:10.444Z,5.52
2022-11-29T20:11:38.580Z,5.50
2022-11-29T20:14:08.150Z,5.45
2022-11-29T20:16:38.385Z,5.42
2022-11-29T20:19:11.416Z,5.36
2022-11-29T20:21:45.572Z,5.32
2022-11-29T20:24:15.316Z,5.29
2022-11-29T20:26:47.217Z,5.32
2022-11-29T20:29:16.719Z,5.33
2022-11-29T20:31:50.212Z,5.31
2022-11-29T20:34:20.458Z,5.31
2022-11-29T20:37:19.418Z,5.28
2022-11-29T20:39:57.818Z,5.25
2022-11-29T20:42:58.516Z,5.18
2022-11-29T20:45:27.025Z,5.15
2022-11-29T20:48:06.740Z,5.17
2022-11-29T20:50:35.606Z,5.16
2022-11-29T20:53:10.092Z,5.17
2022-11-29T20:55:46.294Z,5.15
2022-11-29T20:58:17.272Z,5.14
2022-11-29T21:00:47.208Z,5.12
2022-11-29T21:03:16.676Z,5.09
2022-11-29T21:05:45.369Z,5.09
2022-11-29T21:08:14.910Z,5.06
2022-11-29T21:10:43.042Z,5.02
2022-11-29T21:13:13.192Z,4.97
2022-11-29T21:15:42.201Z,4.91
2022-11-29T21:18:26.506Z,4.89
2022-11-29T21:21:18.486Z,4.83
2022-11-29T21:24:10.130Z,4.77
2022-11-29T21:26:45.220Z,4.72
2022-11-29T21:29:17.665Z,4.69
2022-11-29T21:31:47.291Z,4.67
2022-11-29T21:34:16.091Z,4.64
2022-11-29T21:36:45.396Z,4.63
2022-11-29T21:39:17.267Z,4.62
2022-11-29T21:41:46.220Z,4.62
2022-11-29T21:44:14.749Z,4.63
2022-11-29T21:46:43.419Z,4.63
2022-11-29T21:49:11.937Z,4.61
2022-11-29T21:51:40.677Z,4.62
2022-11-29T21:54:08.865Z,4.62
2022-11-29T21:56:37.142Z,4.62
2022-11-29T21:59:06.505Z,4.63
2022-11-29T22:01:35.243Z,4.62
2022-11-29T22:04:04.725Z,4.60
2022-11-29T22:06:32.967Z,4.53
2022-11-29T22:09:01.676Z,4.53
2022-11-29T22:11:34.965Z,4.50
2022-11-29T22:14:14.569Z,4.48
2022-11-29T22:17:03.370Z,4.44
2022-11-29T22:19:34.012Z,4.42
2022-11-29T22:22:09.810Z,4.41
2022-11-29T22:24:38.754Z,4.40
2022-11-29T22:27:07.098Z,4.36
2022-11-29T22:29:35.697Z,4.36
2022-11-29T22:32:04.264Z,4.34
2022-11-29T22:34:32.495Z,4.35
2022-11-29T22:37:01.010Z,4.35
2022-11-29T22:39:29.691Z,4.32
2022-11-29T22:41:58.447Z,4.32
2022-11-29T22:44:27.206Z,4.29
2022-11-29T22:46:55.965Z,4.28
2022-11-29T22:49:24.633Z,4.26
2022-11-29T22:51:54.397Z,4.24
2022-11-29T22:54:22.771Z,4.23
2022-11-29T22:56:51.588Z,4.20
2022-11-29T22:59:20.171Z,4.19
2022-11-29T23:01:48.976Z,4.17
2022-11-29T23:04:17.143Z,4.17
2022-11-29T23:06:46.765Z,4.15
2022-11-29T23:09:22.714Z,4.11
2022-11-29T23:11:54.900Z,4.11
2022-11-29T23:14:24.421Z,4.07
2022-11-29T23:16:52.751Z,4.05
2022-11-29T23:19:21.173Z,4.00
2022-11-29T23:21:49.313Z,3.99
2022-11-29T23:24:17.350Z,3.96
2022-11-29T23:26:47.533Z,3.99
2022-11-29T23:29:24.528Z,3.99
2022-11-29T23:31:52.448Z,4.00
2022-11-29T23:34:20.308Z,3.99
2022-11-29T23:36:52.570Z,3.95
2022-11-29T23:39:22.445Z,3.94
2022-11-29T23:41:51.666Z,3.93
2022-11-29T23:44:20.161Z,3.90
2022-11-29T23:46:48.641Z,3.92
2022-11-29T23:49:16.937Z,3.90
2022-11-29T23:51:45.436Z,3.91
2022-11-29T23:54:13.831Z,3.91
2022-11-29T23:56:42.137Z,3.91
2022-11-29T23:59:11.187Z,3.89
